createdAt,value
2022-07-27T00:00:59.391Z,97464.25
2022-07-27T00:03:26.490Z,97470.41
2022-07-27T00:05:53.122Z,97473.28
2022-07-27T00:08:20.776Z,97472.38
2022-07-27T00:10:47.529Z,97475.25
2022-07-27T00:13:14.181Z,97476.56
2022-07-27T00:15:40.809Z,97482.31
2022-07-27T00:18:07.710Z,97485.78
2022-07-27T00:20:34.427Z,97485.00
2022-07-27T00:23:01.172Z,97482.22
2022-07-27T00:25:28.047Z,97475.59
2022-07-27T00:27:56.912Z,97482.19
2022-07-27T00:30:24.129Z,97486.69
2022-07-27T00:32:51.193Z,97480.97
2022-07-27T00:35:17.822Z,97483.38
2022-07-27T00:37:44.419Z,97472.91
2022-07-27T00:40:11.755Z,97470.88
2022-07-27T00:42:38.343Z,97469.50
2022-07-27T00:45:06.191Z,97469.59
2022-07-27T00:47:32.851Z,97468.97
2022-07-27T00:49:59.652Z,97469.22
2022-07-27T00:52:28.063Z,97464.84
2022-07-27T00:54:55.021Z,97466.91
2022-07-27T00:57:23.065Z,97467.34
2022-07-27T00:59:49.728Z,97471.06
2022-07-27T01:02:19.408Z,97462.03
2022-07-27T01:04:47.386Z,97458.09
2022-07-27T01:07:15.081Z,97454.63
2022-07-27T01:09:57.572Z,97461.31
2022-07-27T01:12:31.494Z,97448.41
2022-07-27T01:14:59.612Z,97446.16
2022-07-27T01:17:27.474Z,97448.72
2022-07-27T01:19:54.300Z,97459.19
2022-07-27T01:22:20.935Z,97454.19
2022-07-27T01:24:49.608Z,97457.38
2022-07-27T01:27:17.005Z,97458.53
2022-07-27T01:29:43.780Z,97464.06
2022-07-27T01:32:10.463Z,97468.25
2022-07-27T01:34:37.103Z,97464.16
2022-07-27T01:37:04.878Z,97463.44
2022-07-27T01:39:32.357Z,97455.56
2022-07-27T01:42:00.345Z,97457.06
2022-07-27T01:44:27.408Z,97450.03
2022-07-27T01:46:54.085Z,97450.31
2022-07-27T01:49:21.344Z,97451.66
2022-07-27T01:51:48.081Z,97450.41
2022-07-27T01:54:15.101Z,97445.06
2022-07-27T01:56:41.768Z,97441.47
2022-07-27T01:59:08.436Z,97439.22
2022-07-27T02:01:43.122Z,97439.75
2022-07-27T02:04:09.744Z,97439.56
2022-07-27T02:06:36.303Z,97434.25
2022-07-27T02:09:03.127Z,97423.44
2022-07-27T02:11:48.324Z,97425.38
2022-07-27T02:14:16.407Z,97422.59
2022-07-27T02:16:43.449Z,97422.59
2022-07-27T02:19:11.223Z,97425.06
2022-07-27T02:21:39.033Z,97423.47
2022-07-27T02:24:06.324Z,97425.72
2022-07-27T02:26:32.904Z,97421.84
2022-07-27T02:28:59.499Z,97424.38
2022-07-27T02:31:26.579Z,97418.75
2022-07-27T02:33:59.709Z,97422.13
2022-07-27T02:36:29.530Z,97426.34
2022-07-27T02:38:57.358Z,97433.00
2022-07-27T02:41:24.655Z,97434.84
2022-07-27T02:43:51.428Z,97433.13
2022-07-27T02:46:18.102Z,97427.78
2022-07-27T02:48:44.890Z,97429.09
2022-07-27T02:51:11.678Z,97420.28
2022-07-27T02:53:38.199Z,97425.75
2022-07-27T02:56:04.959Z,97430.84
2022-07-27T02:58:31.520Z,97429.22
2022-07-27T03:00:58.944Z,97435.56
2022-07-27T03:03:36.852Z,97430.63
2022-07-27T03:06:05.875Z,97432.69
2022-07-27T03:08:32.575Z,97433.00
2022-07-27T03:10:59.375Z,97427.19
2022-07-27T03:13:26.659Z,97426.16
2022-07-27T03:15:53.278Z,97423.72
2022-07-27T03:18:19.869Z,97435.69
2022-07-27T03:20:46.518Z,97429.53
2022-07-27T03:23:13.345Z,97434.84
2022-07-27T03:25:39.990Z,97439.88
2022-07-27T03:28:06.615Z,97441.03
2022-07-27T03:30:33.550Z,97448.47
2022-07-27T03:33:00.276Z,97451.72
2022-07-27T03:35:26.904Z,97449.28
2022-07-27T03:37:53.595Z,97449.78
2022-07-27T03:40:20.323Z,97453.56
2022-07-27T03:42:46.921Z,97464.63
2022-07-27T03:45:13.533Z,97458.50
2022-07-27T03:47:40.084Z,97461.16
2022-07-27T03:50:07.172Z,97466.88
2022-07-27T03:52:33.834Z,97460.31
2022-07-27T03:55:00.435Z,97465.66
2022-07-27T03:57:27.134Z,97453.25
2022-07-27T03:59:54.189Z,97459.81
2022-07-27T04:02:20.785Z,97451.34
2022-07-27T04:04:47.701Z,97454.09
2022-07-27T04:07:14.351Z,97454.09
2022-07-27T04:09:41.555Z,97449.09
2022-07-27T04:12:10.600Z,97448.19
2022-07-27T04:14:37.254Z,97449.13
2022-07-27T04:17:04.028Z,97442.97
2022-07-27T04:19:30.667Z,97443.16
2022-07-27T04:21:57.496Z,97437.13
2022-07-27T04:24:24.121Z,97444.81
2022-07-27T04:26:50.755Z,97443.06
2022-07-27T04:29:20.953Z,97437.81
2022-07-27T04:31:48.177Z,97438.53
2022-07-27T04:34:14.925Z,97437.94
2022-07-27T04:36:41.618Z,97437.59
2022-07-27T04:39:08.482Z,97442.44
2022-07-27T04:41:35.263Z,97442.22
2022-07-27T04:44:01.938Z,97451.56
2022-07-27T04:46:32.111Z,97445.72
2022-07-27T04:48:58.816Z,97439.97
2022-07-27T04:51:25.538Z,97449.19
2022-07-27T04:53:53.421Z,97450.47
2022-07-27T04:56:26.574Z,97447.25
2022-07-27T04:58:53.421Z,97462.19
2022-07-27T05:01:20.166Z,97469.34
2022-07-27T05:03:46.986Z,97472.38
2022-07-27T05:06:13.659Z,97465.66
2022-07-27T05:08:40.437Z,97457.13
2022-07-27T05:11:07.080Z,97459.06
2022-07-27T05:13:33.740Z,97450.25
2022-07-27T05:16:00.343Z,97452.06
2022-07-27T05:18:27.079Z,97452.16
2022-07-27T05:20:53.805Z,97455.75
2022-07-27T05:23:20.440Z,97463.53
2022-07-27T05:25:47.060Z,97472.84
2022-07-27T05:28:13.983Z,97463.06
2022-07-27T05:30:40.728Z,97465.63
2022-07-27T05:33:07.449Z,97471.06
2022-07-27T05:35:34.246Z,97467.63
2022-07-27T05:38:00.872Z,97461.81
2022-07-27T05:40:27.735Z,97454.59
2022-07-27T05:42:54.375Z,97460.75
2022-07-27T05:45:21.374Z,97468.19
2022-07-27T05:47:48.074Z,97465.13
2022-07-27T05:50:15.794Z,97471.41
2022-07-27T05:52:43.576Z,97472.56
2022-07-27T05:55:10.803Z,97473.50
2022-07-27T05:57:38.107Z,97477.50
2022-07-27T06:00:09.051Z,97480.16
2022-07-27T06:02:35.839Z,97479.22
2022-07-27T06:05:02.779Z,97470.59
2022-07-27T06:07:49.742Z,97472.19
2022-07-27T06:10:17.029Z,97471.34
2022-07-27T06:12:45.156Z,97462.34
2022-07-27T06:15:13.365Z,97459.72
2022-07-27T06:17:40.548Z,97465.28
2022-07-27T06:20:09.178Z,97459.81
2022-07-27T06:22:50.438Z,97459.50
2022-07-27T06:25:17.756Z,97466.94
2022-07-27T06:27:44.948Z,97467.28
2022-07-27T06:30:14.036Z,97474.19
2022-07-27T06:32:41.103Z,97459.50
2022-07-27T06:35:12.017Z,97456.03
2022-07-27T06:37:44.076Z,97458.31
2022-07-27T06:40:14.601Z,97457.13
2022-07-27T06:42:41.975Z,97455.63
2022-07-27T06:45:09.947Z,97453.25
2022-07-27T06:47:49.675Z,97454.56
2022-07-27T06:50:18.359Z,97451.63
2022-07-27T06:52:45.151Z,97454.56
2022-07-27T06:55:12.101Z,97450.69
2022-07-27T06:57:38.967Z,97453.75
2022-07-27T07:00:06.900Z,97448.97
2022-07-27T07:02:33.757Z,97453.84
2022-07-27T07:05:00.424Z,97452.53
2022-07-27T07:07:27.189Z,97457.16
2022-07-27T07:09:53.779Z,97456.06
2022-07-27T07:12:20.472Z,97459.97
2022-07-27T07:14:47.134Z,97458.19
2022-07-27T07:17:13.924Z,97452.38
2022-07-27T07:19:40.564Z,97449.22
2022-07-27T07:22:07.210Z,97446.59
2022-07-27T07:24:33.877Z,97446.97
2022-07-27T07:27:00.524Z,97444.09
2022-07-27T07:29:27.798Z,97438.91
2022-07-27T07:31:54.519Z,97437.28
2022-07-27T07:34:21.242Z,97437.94
2022-07-27T07:36:48.009Z,97430.34
2022-07-27T07:39:15.271Z,97433.31
2022-07-27T07:41:42.064Z,97432.34
2022-07-27T07:44:10.059Z,97429.44
2022-07-27T07:46:37.084Z,97424.25
2022-07-27T07:49:05.007Z,97434.31
2022-07-27T07:51:32.181Z,97433.72
2022-07-27T07:53:59.098Z,97434.09
2022-07-27T07:56:25.762Z,97433.84
2022-07-27T07:58:52.348Z,97437.41
2022-07-27T08:01:19.102Z,97436.56
2022-07-27T08:03:50.573Z,97435.25
2022-07-27T08:06:18.227Z,97430.59
2022-07-27T08:08:45.164Z,97429.91
2022-07-27T08:11:11.949Z,97438.91
2022-07-27T08:13:38.544Z,97431.03
2022-07-27T08:16:05.679Z,97432.00
2022-07-27T08:18:32.842Z,97433.00
2022-07-27T08:20:59.546Z,97431.44
2022-07-27T08:23:27.063Z,97430.97
2022-07-27T08:25:54.149Z,97429.78
2022-07-27T08:28:20.862Z,97433.00
2022-07-27T08:30:47.988Z,97434.00
2022-07-27T08:33:16.284Z,97436.97
2022-07-27T08:35:42.919Z,97434.72
2022-07-27T08:38:09.659Z,97423.28
2022-07-27T08:40:40.204Z,97429.00
2022-07-27T08:43:09.388Z,97430.56
2022-07-27T08:45:37.711Z,97435.25
2022-07-27T08:48:05.237Z,97444.41
2022-07-27T08:50:34.642Z,97430.28
2022-07-27T08:53:05.535Z,97441.00
2022-07-27T08:55:37.909Z,97444.91
2022-07-27T08:58:05.291Z,97440.78
2022-07-27T09:00:34.782Z,97435.88
2022-07-27T09:03:01.912Z,97436.84
2022-07-27T09:05:37.281Z,97431.19
2022-07-27T09:08:12.071Z,97436.66
2022-07-27T09:10:38.992Z,97432.84
2022-07-27T09:13:27.527Z,97436.22
2022-07-27T09:16:18.138Z,97435.19
2022-07-27T09:18:46.325Z,97434.09
2022-07-27T09:21:21.982Z,97433.97
2022-07-27T09:24:45.094Z,97436.56
2022-07-27T09:27:04.168Z,97441.25
2022-07-27T09:29:35.476Z,97441.69
2022-07-27T09:32:14.462Z,97439.22
2022-07-27T09:34:41.068Z,97432.53
2022-07-27T09:37:08.035Z,97442.50
2022-07-27T09:39:34.689Z,97436.53
2022-07-27T09:42:02.697Z,97439.19
2022-07-27T09:44:53.461Z,97441.66
2022-07-27T09:47:28.427Z,97446.69
2022-07-27T09:50:18.797Z,97451.41
2022-07-27T09:52:46.231Z,97451.53
2022-07-27T09:55:12.979Z,97450.03
2022-07-27T09:57:58.953Z,97447.28
2022-07-27T10:00:27.295Z,97452.28
2022-07-27T10:02:55.097Z,97443.84
2022-07-27T10:05:22.804Z,97446.78
2022-07-27T10:07:51.426Z,97448.97
2022-07-27T10:10:18.309Z,97441.72
2022-07-27T10:12:49.210Z,97439.88
2022-07-27T10:15:18.783Z,97440.19
2022-07-27T10:17:46.506Z,97440.25
2022-07-27T10:20:17.029Z,97442.31
2022-07-27T10:22:58.754Z,97436.25
2022-07-27T10:25:27.634Z,97433.34
2022-07-27T10:28:17.522Z,97445.41
2022-07-27T10:30:46.259Z,97436.13
2022-07-27T10:33:43.856Z,97440.94
2022-07-27T10:36:19.528Z,97433.31
2022-07-27T10:38:56.547Z,97425.53
2022-07-27T10:41:28.396Z,97435.50
2022-07-27T10:44:31.863Z,97437.84
2022-07-27T10:47:03.553Z,97433.94
2022-07-27T10:49:40.258Z,97428.28
2022-07-27T10:52:07.480Z,97427.28
2022-07-27T10:54:41.802Z,97421.19
2022-07-27T10:57:09.443Z,97428.31
2022-07-27T11:00:12.417Z,97423.50
2022-07-27T11:02:42.688Z,97412.56
2022-07-27T11:05:53.739Z,97411.13
2022-07-27T11:08:36.189Z,97408.69
2022-07-27T11:10:48.072Z,97411.69
2022-07-27T11:13:16.974Z,97409.31
2022-07-27T11:15:59.727Z,97407.25
2022-07-27T11:18:32.675Z,97409.59
2022-07-27T11:21:37.515Z,97411.34
2022-07-27T11:24:11.050Z,97405.63
2022-07-27T11:26:47.343Z,97405.59
2022-07-27T11:29:16.426Z,97408.56
2022-07-27T11:31:55.334Z,97403.59
2022-07-27T11:34:34.764Z,97404.84
2022-07-27T11:37:03.428Z,97402.25
2022-07-27T11:42:23.531Z,97401.13
2022-07-27T11:44:51.250Z,97396.59
2022-07-27T11:47:19.613Z,97391.84
2022-07-27T11:49:47.319Z,97392.06
2022-07-27T11:52:17.278Z,97389.94
2022-07-27T11:54:43.873Z,97396.31
2022-07-27T11:57:19.056Z,97389.94
2022-07-27T11:59:46.204Z,97395.41
2022-07-27T12:02:18.295Z,97383.81
2022-07-27T12:04:47.899Z,97393.41
2022-07-27T12:07:23.832Z,97390.78
2022-07-27T12:09:56.547Z,97386.16
2022-07-27T12:12:25.909Z,97393.25
2022-07-27T12:15:16.374Z,97381.66
2022-07-27T12:17:57.261Z,97384.56
2022-07-27T12:20:32.556Z,97386.06
2022-07-27T12:23:05.369Z,97384.78
2022-07-27T12:25:33.400Z,97391.25
2022-07-27T12:28:06.187Z,97389.34
2022-07-27T12:30:46.294Z,97384.09
2022-07-27T12:33:38.627Z,97382.84
2022-07-27T12:36:07.971Z,97385.25
2022-07-27T12:38:51.065Z,97384.50
2022-07-27T12:41:35.264Z,97380.84
2022-07-27T12:44:05.618Z,97382.91
2022-07-27T12:46:32.429Z,97382.00
2022-07-27T12:48:59.196Z,97380.69
2022-07-27T12:51:25.888Z,97384.88
2022-07-27T12:53:52.587Z,97379.28
2022-07-27T12:56:27.426Z,97375.50
2022-07-27T12:58:59.836Z,97380.97
2022-07-27T13:01:26.432Z,97378.06
2022-07-27T13:03:53.152Z,97378.78
2022-07-27T13:06:19.801Z,97376.00
2022-07-27T13:08:46.467Z,97375.31
2022-07-27T13:11:13.800Z,97375.38
2022-07-27T13:13:40.896Z,97381.22
2022-07-27T13:16:07.552Z,97372.19
2022-07-27T13:18:34.247Z,97377.25
2022-07-27T13:21:00.875Z,97367.59
2022-07-27T13:23:27.808Z,97374.69
2022-07-27T13:25:54.500Z,97374.81
2022-07-27T13:28:21.117Z,97378.38
2022-07-27T13:30:47.815Z,97365.88
2022-07-27T13:33:14.475Z,97370.19
2022-07-27T13:35:41.140Z,97380.00
2022-07-27T13:38:08.553Z,97370.47
2022-07-27T13:40:42.933Z,97376.81
2022-07-27T13:43:12.183Z,97376.25
2022-07-27T13:45:43.102Z,97373.31
2022-07-27T13:48:11.894Z,97374.81
2022-07-27T13:50:39.425Z,97385.19
2022-07-27T13:53:05.990Z,97381.53
2022-07-27T13:55:32.681Z,97382.91
2022-07-27T13:57:59.309Z,97383.63
2022-07-27T14:00:25.983Z,97379.44
2022-07-27T14:02:53.309Z,97367.63
2022-07-27T14:05:20.765Z,97369.81
2022-07-27T14:07:47.414Z,97370.75
2022-07-27T14:10:32.201Z,97369.38
2022-07-27T14:13:07.993Z,97376.34
2022-07-27T14:15:50.331Z,97369.97
2022-07-27T14:18:22.474Z,97373.41
2022-07-27T14:20:49.494Z,97376.22
2022-07-27T14:23:16.178Z,97369.19
2022-07-27T14:25:42.748Z,97369.09
2022-07-27T14:28:09.336Z,97378.78
2022-07-27T14:30:36.111Z,97373.91
2022-07-27T14:33:03.086Z,97371.84
2022-07-27T14:35:29.863Z,97374.91
2022-07-27T14:37:58.389Z,97376.34
2022-07-27T14:40:25.715Z,97366.56
2022-07-27T14:42:52.564Z,97366.19
2022-07-27T14:45:19.923Z,97368.22
2022-07-27T14:47:47.042Z,97366.56
2022-07-27T14:50:15.015Z,97365.09
2022-07-27T14:52:41.702Z,97365.50
2022-07-27T14:55:09.620Z,97365.94
2022-07-27T14:57:36.975Z,97362.97
2022-07-27T15:00:10.309Z,97371.78
2022-07-27T15:02:38.152Z,97368.78
2022-07-27T15:05:05.995Z,97365.34
2022-07-27T15:07:33.294Z,97371.38
2022-07-27T15:10:00.501Z,97372.09
2022-07-27T15:12:27.356Z,97369.91
2022-07-27T15:14:55.112Z,97375.47
2022-07-27T15:17:21.739Z,97372.72
2022-07-27T15:19:48.341Z,97366.47
2022-07-27T15:22:15.203Z,97366.50
2022-07-27T15:24:41.855Z,97375.56
2022-07-27T15:27:08.796Z,97376.28
2022-07-27T15:29:36.546Z,97378.59
2022-07-27T15:32:03.934Z,97380.47
2022-07-27T15:34:30.655Z,97374.72
2022-07-27T15:36:57.507Z,97383.00
2022-07-27T15:39:24.503Z,97378.69
2022-07-27T15:41:51.185Z,97374.50
2022-07-27T15:44:22.083Z,97374.41
2022-07-27T15:46:48.890Z,97371.41
2022-07-27T15:49:15.990Z,97365.19
2022-07-27T15:51:43.026Z,97365.09
2022-07-27T15:54:09.591Z,97367.16
2022-07-27T15:56:36.175Z,97363.66
2022-07-27T15:59:02.784Z,97367.06
2022-07-27T16:01:35.599Z,97359.44
2022-07-27T16:04:03.256Z,97353.84
2022-07-27T16:06:34.014Z,97346.41
2022-07-27T16:09:04.373Z,97355.53
2022-07-27T16:11:31.019Z,97356.16
2022-07-27T16:13:57.700Z,97351.63
2022-07-27T16:16:25.212Z,97356.38
2022-07-27T16:18:53.548Z,97351.41
2022-07-27T16:21:22.634Z,97364.47
2022-07-27T16:23:51.249Z,97362.97
2022-07-27T16:26:18.374Z,97364.13
2022-07-27T16:28:48.116Z,97370.25
2022-07-27T16:31:16.452Z,97379.91
2022-07-27T16:33:44.457Z,97375.56
2022-07-27T16:36:11.425Z,97385.28
2022-07-27T16:38:39.129Z,97385.34
2022-07-27T16:41:17.397Z,97383.41
2022-07-27T16:43:44.043Z,97377.13
2022-07-27T16:46:11.842Z,97390.16
2022-07-27T16:48:42.343Z,97384.06
2022-07-27T16:51:10.939Z,97386.50
2022-07-27T16:53:42.509Z,97385.63
2022-07-27T16:56:10.187Z,97378.50
2022-07-27T16:58:37.566Z,97376.81
2022-07-27T17:01:05.288Z,97380.63
2022-07-27T17:03:31.999Z,97381.91
2022-07-27T17:06:02.194Z,97373.66
2022-07-27T17:08:32.344Z,97386.13
2022-07-27T17:11:00.522Z,97385.31
2022-07-27T17:13:33.670Z,97392.72
2022-07-27T17:16:01.360Z,97388.34
2022-07-27T17:18:28.077Z,97392.44
2022-07-27T17:20:54.728Z,97395.84
2022-07-27T17:23:21.369Z,97400.59
2022-07-27T17:25:48.216Z,97404.09
2022-07-27T17:28:14.842Z,97399.09
2022-07-27T17:30:41.758Z,97398.22
2022-07-27T17:33:08.589Z,97399.41
2022-07-27T17:35:35.336Z,97404.19
2022-07-27T17:38:06.893Z,97408.06
2022-07-27T17:40:34.617Z,97400.72
2022-07-27T17:43:01.277Z,97406.78
2022-07-27T17:45:27.937Z,97400.75
2022-07-27T17:47:54.881Z,97414.44
2022-07-27T17:50:21.536Z,97416.44
2022-07-27T17:52:48.192Z,97416.44
2022-07-27T17:55:14.819Z,97410.03
2022-07-27T17:57:41.456Z,97409.00
2022-07-27T18:00:10.775Z,97405.47
2022-07-27T18:02:37.361Z,97411.69
2022-07-27T18:05:04.367Z,97409.56
2022-07-27T18:07:30.957Z,97415.03
2022-07-27T18:10:06.512Z,97420.38
2022-07-27T18:12:34.554Z,97419.00
2022-07-27T18:15:19.799Z,97423.41
2022-07-27T18:17:46.455Z,97427.75
2022-07-27T18:20:13.130Z,97433.47
2022-07-27T18:22:39.846Z,97436.44
2022-07-27T18:25:07.747Z,97434.63
2022-07-27T18:27:35.485Z,97439.09
2022-07-27T18:30:04.606Z,97445.41
2022-07-27T18:32:31.474Z,97457.16
2022-07-27T18:34:58.140Z,97448.53
2022-07-27T18:37:24.986Z,97459.72
2022-07-27T18:39:51.748Z,97464.78
2022-07-27T18:42:18.655Z,97474.50
2022-07-27T18:44:45.353Z,97476.47
2022-07-27T18:47:11.979Z,97467.84
2022-07-27T18:49:38.637Z,97466.44
2022-07-27T18:52:05.772Z,97473.31
2022-07-27T18:54:32.497Z,97471.28
2022-07-27T18:56:59.951Z,97484.06
2022-07-27T18:59:26.682Z,97492.97
2022-07-27T19:01:53.503Z,97495.59
2022-07-27T19:04:20.186Z,97499.31
2022-07-27T19:06:47.177Z,97504.03
2022-07-27T19:09:14.249Z,97513.16
2022-07-27T19:11:41.323Z,97516.41
2022-07-27T19:14:07.954Z,97522.16
2022-07-27T19:16:35.755Z,97521.81
2022-07-27T19:19:02.937Z,97539.66
2022-07-27T19:21:29.623Z,97550.06
2022-07-27T19:23:56.621Z,97556.97
2022-07-27T19:26:23.256Z,97569.44
2022-07-27T19:28:51.086Z,97562.13
2022-07-27T19:31:23.524Z,97562.28
2022-07-27T19:33:52.296Z,97566.47
2022-07-27T19:36:19.832Z,97564.25
2022-07-27T19:38:46.499Z,97562.66
2022-07-27T19:41:13.101Z,97573.06
2022-07-27T19:43:39.805Z,97576.56
2022-07-27T19:46:06.543Z,97579.34
2022-07-27T19:48:33.281Z,97586.75
2022-07-27T19:51:03.401Z,97579.16
2022-07-27T19:53:35.030Z,97581.50
2022-07-27T19:56:01.680Z,97588.75
2022-07-27T19:58:28.336Z,97577.78
2022-07-27T20:00:55.784Z,97577.88
2022-07-27T20:03:22.934Z,97583.44
2022-07-27T20:05:49.839Z,97586.91
2022-07-27T20:08:16.565Z,97586.19
2022-07-27T20:10:43.881Z,97591.75
2022-07-27T20:13:10.574Z,97589.88
2022-07-27T20:15:37.293Z,97600.97
2022-07-27T20:18:04.116Z,97603.03
2022-07-27T20:20:31.407Z,97602.75
2022-07-27T20:22:58.500Z,97610.81
2022-07-27T20:25:25.317Z,97613.41
2022-07-27T20:27:52.329Z,97616.00
2022-07-27T20:30:20.046Z,97613.03
2022-07-27T20:32:48.843Z,97613.22
2022-07-27T20:35:16.658Z,97613.03
2022-07-27T20:37:45.171Z,97608.63
2022-07-27T20:40:14.418Z,97621.59
2022-07-27T20:42:42.729Z,97622.81
2022-07-27T20:45:11.476Z,97627.59
2022-07-27T20:47:38.461Z,97626.66
2022-07-27T20:50:11.095Z,97624.03
2022-07-27T20:52:39.265Z,97617.50
2022-07-27T20:55:07.961Z,97619.56
2022-07-27T20:57:35.295Z,97614.53
2022-07-27T21:00:02.412Z,97623.75
2022-07-27T21:02:29.059Z,97617.41
2022-07-27T21:04:55.781Z,97615.97
2022-07-27T21:07:22.418Z,97616.78
2022-07-27T21:09:49.432Z,97616.25
2022-07-27T21:12:16.227Z,97614.66
2022-07-27T21:14:43.596Z,97612.72
2022-07-27T21:17:10.582Z,97609.16
2022-07-27T21:19:37.362Z,97621.47
2022-07-27T21:22:04.096Z,97628.97
2022-07-27T21:24:30.829Z,97628.06
2022-07-27T21:27:03.935Z,97629.47
2022-07-27T21:29:31.981Z,97632.06
2022-07-27T21:31:59.071Z,97636.06
2022-07-27T21:34:25.736Z,97634.94
2022-07-27T21:36:52.430Z,97644.25
2022-07-27T21:39:20.030Z,97642.22
2022-07-27T21:41:46.746Z,97644.47
2022-07-27T21:44:13.878Z,97654.19
2022-07-27T21:46:40.918Z,97644.78
2022-07-27T21:49:08.194Z,97652.94
2022-07-27T21:51:35.032Z,97650.16
2022-07-27T21:54:01.981Z,97647.09
2022-07-27T21:56:28.674Z,97655.28
2022-07-27T21:58:55.430Z,97642.78
2022-07-27T22:01:22.521Z,97650.66
2022-07-27T22:03:49.665Z,97655.28
2022-07-27T22:06:16.918Z,97650.88
2022-07-27T22:08:44.039Z,97656.72
2022-07-27T22:11:10.699Z,97652.00
2022-07-27T22:13:37.453Z,97656.63
2022-07-27T22:16:05.050Z,97660.22
2022-07-27T22:18:32.016Z,97662.34
2022-07-27T22:20:58.689Z,97660.09
2022-07-27T22:23:25.371Z,97658.69
2022-07-27T22:25:52.123Z,97655.72
2022-07-27T22:28:18.935Z,97663.47
2022-07-27T22:31:20.683Z,97668.19
2022-07-27T22:33:37.027Z,97669.22
2022-07-27T22:36:06.684Z,97666.75
2022-07-27T22:38:33.735Z,97671.50
2022-07-27T22:41:00.401Z,97672.81
2022-07-27T22:43:27.057Z,97677.81
2022-07-27T22:45:53.781Z,97676.50
2022-07-27T22:48:20.432Z,97674.44
2022-07-27T22:50:47.583Z,97676.38
2022-07-27T22:53:17.571Z,97677.41
2022-07-27T22:55:44.345Z,97670.19
2022-07-27T22:58:11.809Z,97670.50
2022-07-27T23:00:38.793Z,97668.56
2022-07-27T23:03:05.593Z,97666.50
2022-07-27T23:05:32.273Z,97674.69
2022-07-27T23:07:59.326Z,97675.81
2022-07-27T23:10:44.487Z,97677.88
2022-07-27T23:13:12.673Z,97680.50
2022-07-27T23:15:39.640Z,97674.97
2022-07-27T23:18:07.323Z,97673.66
2022-07-27T23:20:34.021Z,97671.72
2022-07-27T23:23:00.862Z,97675.09
2022-07-27T23:25:36.206Z,97672.13
2022-07-27T23:28:03.853Z,97668.41
2022-07-27T23:30:30.910Z,97676.69
2022-07-27T23:32:57.539Z,97671.78
2022-07-27T23:35:24.382Z,97673.72
2022-07-27T23:37:51.128Z,97677.09
2022-07-27T23:40:18.552Z,97674.72
2022-07-27T23:42:45.244Z,97683.63
2022-07-27T23:45:12.361Z,97678.09
2022-07-27T23:47:39.483Z,97671.59
2022-07-27T23:50:06.839Z,97674.25
2022-07-27T23:52:33.842Z,97680.50
2022-07-27T23:55:00.714Z,97678.84
2022-07-27T23:57:27.419Z,97680.38
2022-07-27T23:59:54.245Z,97681.41
